Nearby METAR Reports

 

KSWO - Stillwater, Oklahoma, USA
Distance from station: S 17mi, 28km
Updated: Mon, 02-06-2023 8:53am CST
Clear
Clear
 Wind from S
Wind: S 17 mph , 28 km/h
Temperature: 55°F , 13°C
Dew Point: 48°F , 9°C
Humidity: 77%
Barometer: 29.83 inHg , 1010.2 hPa
Clouds: Clear
Visibility: 10 miles , 16 km
2023/02/06 14:53 KSWO 061453Z 17015KT 10SM CLR 13/09 A2983 RMK AO2 SLP098 T01280094 58010
KCFV - Coffeyville, Kansas, USA
Distance from station: ENE 93mi, 150km
Updated: Mon, 02-06-2023 8:52am CST
Clear
Clear
 Wind from S
Wind: S 20 mph , 31 km/h, Gust: 28 mph , 44 km/h
Temperature: 55°F , 13°C
Dew Point: 48°F , 9°C
Humidity: 77%
Barometer: 29.85 inHg , 1010.8 hPa
Clouds: Clear
Visibility: 10 miles , 16 km
2023/02/06 14:52 KCFV 061452Z AUTO 17017G24KT 10SM CLR 13/09 A2985 RMK AO2 SLP111 T01330094 58015
KIDP - Independence, Kansas, USA
Distance from station: NE 86mi, 138km
Updated: Mon, 02-06-2023 9:35am CST
Clear
Clear
 Wind from S
Wind: S 21 mph , 33 km/h, Gust: 32 mph , 52 km/h
Temperature: 57°F , 14°C
Dew Point: 50°F , 10°C
Humidity: 77%
Barometer: 29.85 inHg , 1010.8 hPa
Clouds: Clear
Visibility: 10 miles , 16 km
2023/02/06 15:35 KIDP 061535Z AUTO 17018G28KT 10SM CLR 14/10 A2985 RMK AO2 T01370097
 
KIAB - Mcconnell Afb, Kansas, USA
Distance from station: N 84mi, 135km
Updated: Mon, 02-06-2023 8:55am CST
Clear
Clear
 Wind from S
Wind: S 22 mph , 35 km/h
Temperature: 50°F , 10°C
Wind Chill: 43°F , 6°C
Dew Point: 45°F , 7°C
Humidity: 82%
Barometer: 29.73 inHg , 1006.8 hPa
Clouds: Clear
Visibility: 10 miles , 16 km
2023/02/06 14:55 KIAB 061455Z AUTO 19019KT 10SM CLR 10/07 A2973 RMK AO2 PK WND 18026/32 SLP071 T01020069 57008 $
KICT - Wichita, Kansas, USA
Distance from station: NNW 88mi, 142km
Updated: Mon, 02-06-2023 8:53am CST
Clear
Clear
 Wind from S
Wind: S 20 mph , 31 km/h
Temperature: 50°F , 10°C
Wind Chill: 44°F , 7°C
Dew Point: 45°F , 7°C
Humidity: 82%
Barometer: 29.74 inHg , 1007.1 hPa
Clouds: Clear
Visibility: 10 miles , 16 km
2023/02/06 14:53 KICT 061453Z 17017KT 10SM CLR 10/07 A2974 RMK AO2 SLP072 T01000067 56010
KAAO - Wichita/Jabara, Kansas, USA
Distance from station: N 93mi, 149km
Updated: Mon, 02-06-2023 8:54am CST
Clear
Clear
 Wind from S
Wind: S 18 mph , 30 km/h, Gust: 32 mph , 52 km/h
Temperature: 50°F , 10°C
Wind Chill: 44°F , 7°C
Dew Point: 45°F , 7°C
Humidity: 82%
Barometer: 29.74 inHg , 1007.1 hPa
Clouds: Clear
Visibility: 10 miles , 16 km
2023/02/06 14:54 KAAO 061454Z AUTO 17016G28KT 10SM CLR 10/07 A2974 RMK AO2 PK WND 17028/1445 SLP075 T01000067 56012
 
KWLD - Winfield/Arkansa, Kansas, USA
Distance from station: N 52mi, 84km
Updated: Mon, 02-06-2023 8:54am CST
Clear
Clear
 Wind from S
Wind: S 13 mph , 20 km/h
Temperature: 54°F , 12°C
Dew Point: 46°F , 8°C
Humidity: 77%
Barometer: 29.80 inHg , 1009.1 hPa
Clouds: Clear
Visibility: 10 miles , 16 km
2023/02/06 14:54 KWLD 061454Z AUTO 17011KT 10SM CLR 12/08 A2980 RMK AO2 SLP090 T01170083 58004
KAVK - Alva, Oklahoma, USA
Distance from station: WNW 94mi, 152km
Updated: Mon, 02-06-2023 9:40am CST
Clear
Clear
 Wind from SW
Wind: SW 9 mph , 15 km/h
Temperature: 50°F , 10°C
Wind Chill: 46°F , 8°C
Dew Point: 39°F , 4°C
Humidity: 67%
Barometer: 29.75 inHg , 1007.5 hPa
Clouds: Clear
Visibility: 10 miles , 16 km
2023/02/06 15:40 KAVK 061540Z AUTO 23008KT 10SM CLR 10/04 A2975 RMK AO2 PWINO
KBVO - Bartlesville, Oklahoma, USA
Distance from station: ENE 61mi, 98km
Updated: Mon, 02-06-2023 8:53am CST
Clear
Clear
 Wind from S
Wind: S 18 mph , 30 km/h, Gust: 30 mph , 48 km/h
Temperature: 54°F , 12°C
Dew Point: 50°F , 10°C
Humidity: 88%
Barometer: 29.87 inHg , 1011.5 hPa
Clouds: Clear
Visibility: 10 miles , 16 km
2023/02/06 14:53 KBVO 061453Z AUTO 17016G26KT 10SM CLR 12/10 A2987 RMK AO2 PK WND 17026/1448 SLP112 T01220100 58016
 
KBKN - Blackwell, Oklahoma, USA
Distance from station: NW 29mi, 47km
Updated: Thu, 09-08-2022 6:15pm CDT
NOT Current
Clear
Clear
 Wind from ESE
Wind: ESE 12 mph , 19 km/h
Temperature: 90°F , 32°C
Dew Point: 54°F , 12°C
Humidity: 29%
Barometer: 29.81 inHg , 1009.5 hPa
Clouds: Clear
2022/09/08 23:15 KBKN 082315Z AUTO 12010KT CLR 32/12 A2981 RMK AO2
KGCM - Claremore, Oklahoma, USA
Distance from station: E 86mi, 138km
Updated: Mon, 02-06-2023 9:35am CST
Clear
Clear
 Wind from SSE
Wind: SSE 24 mph , 39 km/h, Gust: 35 mph , 56 km/h
Temperature: 61°F , 16°C
Dew Point: 54°F , 12°C
Humidity: 77%
Barometer: 29.90 inHg , 1012.5 hPa
Clouds: Clear
Visibility: 10 miles , 16 km
2023/02/06 15:35 KGCM 061535Z AUTO 16021G30KT 10SM CLR 16/12 A2990 RMK AO2
KCQB - Chandler, Oklahoma, USA
Distance from station: SSE 50mi, 80km
Updated: Mon, 02-06-2023 9:30am CST
Clear
Clear
 Wind from S
Wind: S 17 mph , 28 km/h, Gust: 25 mph , 41 km/h
Temperature: 57°F , 14°C
Dew Point: 50°F , 10°C
Humidity: 77%
Barometer: 29.86 inHg , 1011.2 hPa
Clouds: Clear
Visibility: 10 miles , 16 km
2023/02/06 15:30 KCQB 061530Z AUTO 18015G22KT 10SM CLR 14/10 A2986 RMK AO2 T01410101
 
KCUH - Cushing, Oklahoma, USA
Distance from station: SSE 35mi, 57km
Updated: Mon, 02-06-2023 9:35am CST
Clear
Clear
 Wind from SSE
Wind: SSE 12 mph , 19 km/h, Gust: 28 mph , 44 km/h
Temperature: 57°F , 14°C
Dew Point: 48°F , 9°C
Humidity: 72%
Barometer: 29.85 inHg , 1010.8 hPa
Clouds: Clear
Visibility: 10 miles , 16 km
2023/02/06 15:35 KCUH 061535Z AUTO 16010G24KT 140V200 10SM CLR 14/09 A2985 RMK AO2 T01420091
KRQO - El Reno Muni, Oklahoma, USA
Distance from station: SW 85mi, 137km
Updated: Mon, 02-06-2023 9:35am CST

 Wind from S
Wind: S 18 mph , 30 km/h
Temperature: 55°F , 13°C
Dew Point: 48°F , 9°C
Humidity: 77%
Barometer: 29.85 inHg , 1010.8 hPa
2023/02/06 15:35 KRQO 061535Z AUTO 18016KT 13/09 A2985 RMK AO2 PWINO T01290086
KEND - Enid/Vance Afb, Oklahoma, USA
Distance from station: W 50mi, 81km
Updated: Mon, 02-06-2023 8:55am CST
Clear
Clear
 Wind from S
Wind: S 21 mph , 33 km/h
Temperature: 52°F , 11°C
Dew Point: 43°F , 6°C
Humidity: 72%
Barometer: 29.75 inHg , 1007.5 hPa
Clouds: Clear
Visibility: 10 miles , 16 km
2023/02/06 14:55 KEND 061455Z AUTO 18018KT 10SM CLR 11/06 A2975 RMK AO2 SLP076 T01090064 55008 $
 
KWDG - Enid/Woodring, Oklahoma, USA
Distance from station: W 42mi, 67km
Updated: Mon, 02-06-2023 9:45am CST
Few Clouds
Few Clouds
 Wind from S
Wind: S 15 mph , 24 km/h, Gust: 22 mph , 35 km/h
Temperature: 55°F , 13°C
Dew Point: 46°F , 8°C
Humidity: 72%
Barometer: 29.80 inHg , 1009.1 hPa
Clouds: Few Clouds
Visibility: 10 miles , 16 km
Cloud details: Few Clouds 20000 ft
2023/02/06 15:45 KWDG 061545Z 17013G19KT 10SM FEW200 13/08 A2980
KGOK - Guthrie, Oklahoma, USA
Distance from station: SSW 44mi, 71km
Updated: Mon, 02-06-2023 8:53am CST
Clear
Clear
 Wind from S
Wind: S 16 mph , 26 km/h, Gust: 33 mph , 54 km/h
Temperature: 55°F , 13°C
Dew Point: 46°F , 8°C
Humidity: 72%
Barometer: 29.81 inHg , 1009.5 hPa
Clouds: Clear
Visibility: 10 miles , 16 km
2023/02/06 14:53 KGOK 061453Z AUTO 18014G29KT 10SM CLR 13/08 A2981 RMK AO2 PK WND 20029/1447 SLP094 T01330078 58010
KOUN - Norman/Westheime, Oklahoma, USA
Distance from station: SSW 84mi, 136km
Updated: Mon, 02-06-2023 9:49am CST
Clear
Clear
 Wind from SSE
Wind: SSE 24 mph , 39 km/h, Gust: 31 mph , 50 km/h
Temperature: 57°F , 14°C
Dew Point: 50°F , 10°C
Humidity: 77%
Barometer: 29.85 inHg , 1010.8 hPa
Clouds: Clear
Visibility: 10 miles , 16 km
2023/02/06 15:49 KOUN 061549Z 16021G27KT 10SM CLR 14/10 A2985
 
KOKC - Oklahoma City, Oklahoma, USA
Distance from station: SSW 78mi, 126km
Updated: Mon, 02-06-2023 8:52am CST
Partly cloudy
Partly cloudy
 Wind from S
Wind: S 16 mph , 26 km/h
Temperature: 52°F , 11°C
Dew Point: 48°F , 9°C
Humidity: 88%
Barometer: 29.85 inHg , 1010.8 hPa
Clouds: Partly cloudy
Visibility: 10 miles , 16 km
Cloud details: Few Clouds 15000 ft
Partly cloudy 25000 ft
2023/02/06 14:52 KOKC 061452Z 17014KT 10SM FEW150 SCT250 11/09 A2985 RMK AO2 SLP108 T01060089 58007
KPWA - Okla City/Wiley, Oklahoma, USA
Distance from station: SSW 70mi, 113km
Updated: Mon, 02-06-2023 8:53am CST
Clear
Clear
 Wind from S
Wind: S 20 mph , 31 km/h, Gust: 29 mph , 46 km/h
Temperature: 54°F , 12°C
Dew Point: 46°F , 8°C
Humidity: 77%
Barometer: 29.84 inHg , 1010.5 hPa
Clouds: Clear
Visibility: 10 miles , 16 km
2023/02/06 14:53 KPWA 061453Z 18017G25KT 10SM CLR 12/08 A2984 RMK AO2 SLP100 T01220083 58008
KRCE - Okla City/Page, Oklahoma, USA
Distance from station: SW 78mi, 126km
Updated: Mon, 02-06-2023 9:35am CST
Clear
Clear
 Wind from S
Wind: S 21 mph , 33 km/h, Gust: 35 mph , 56 km/h
Temperature: 55°F , 13°C
Dew Point: 46°F , 8°C
Humidity: 72%
Barometer: 29.83 inHg , 1010.2 hPa
Clouds: Clear
Visibility: 10 miles , 16 km
2023/02/06 15:35 KRCE 061535Z AUTO 19018G30KT 10SM CLR 13/08 A2983 RMK AO2
 
KOKM - Okmulgee, Oklahoma, USA
Distance from station: SE 79mi, 127km
Updated: Mon, 02-06-2023 9:35am CST
Clear
Clear
 Wind from S
Wind: S 23 mph , 37 km/h, Gust: 38 mph , 61 km/h
Temperature: 61°F , 16°C
Dew Point: 50°F , 10°C
Humidity: 68%
Barometer: 29.91 inHg , 1012.9 hPa
Clouds: Clear
Visibility: 10 miles , 16 km
2023/02/06 15:35 KOKM 061535Z AUTO 18020G33KT 10SM CLR 16/10 A2991 RMK AO2 T01550097
KPNC - Ponca City, Oklahoma, USA
Distance from station: N 22mi, 36km
Updated: Mon, 02-06-2023 8:53am CST
Clear
Clear
 Wind from S
Wind: S 16 mph , 26 km/h, Gust: 25 mph , 41 km/h
Temperature: 54°F , 12°C
Dew Point: 46°F , 8°C
Humidity: 77%
Barometer: 29.79 inHg , 1008.8 hPa
Clouds: Clear
Visibility: 10 miles , 16 km
2023/02/06 14:53 KPNC 061453Z AUTO 17014G22KT 10SM CLR 12/08 A2979 RMK AO2 PK WND 16026/1412 SLP085 T01220083 56009
KSNL - Shawnee, Oklahoma, USA
Distance from station: S 74mi, 119km
Updated: Mon, 02-06-2023 9:35am CST
Clear
Clear
 Wind from S
Wind: S 20 mph , 31 km/h
Temperature: 57°F , 14°C
Dew Point: 50°F , 10°C
Humidity: 77%
Barometer: 29.89 inHg , 1012.2 hPa
Clouds: Clear
Visibility: 10 miles , 16 km
2023/02/06 15:35 KSNL 061535Z AUTO 17017KT 10SM CLR 14/10 A2989 RMK AO2 T01370097